Time;durP1;ratioP1;P1;durP2;ratioP2;P2;SDS_P1;SDS_P2;PMS_P1;PMS_P2;Temp;Humidity;BMP_temperature;BMP_pressure;BME280_temperature;BME280_humidity;BME280_pressure;Samples;Min_cycle;Max_cycle;Signal;HPM_P1;HPM_P2
2023/01/31 00:01:07;;;;;;;7.30;1.75;;;14.90;53.20;;;;;;5106026;27;45367;-67
2023/01/31 00:03:35;;;;;;;4.72;1.65;;;14.90;53.00;;;;;;5105475;27;45477;-67
2023/01/31 00:06:13;;;;;;;3.05;1.25;;;14.90;53.00;;;;;;5097874;27;47292;-67
2023/01/31 00:08:40;;;;;;;6.90;1.80;;;14.90;53.00;;;;;;5105764;27;45287;-67
2023/01/31 00:11:07;;;;;;;8.73;1.83;;;14.90;53.10;;;;;;5104141;27;45358;-68
2023/01/31 00:13:34;;;;;;;8.93;2.03;;;14.90;53.00;;;;;;5103527;27;45392;-67
2023/01/31 00:16:01;;;;;;;7.10;1.92;;;14.90;53.20;;;;;;5105366;27;45462;-68
2023/01/31 00:18:29;;;;;;;7.10;1.98;;;14.90;53.20;;;;;;5105710;27;45302;-68
2023/01/31 00:20:57;;;;;;;8.13;1.90;;;14.80;53.10;;;;;;5104823;27;45393;-67
2023/01/31 00:23:24;;;;;;;7.45;2.10;;;14.80;53.20;;;;;;5095933;27;45655;-67
2023/01/31 00:25:51;;;;;;;4.70;1.80;;;14.80;53.20;;;;;;5103602;27;47564;-67
2023/01/31 00:28:18;;;;;;;4.18;1.70;;;14.80;53.30;;;;;;5102292;27;45450;-68
2023/01/31 00:30:44;;;;;;;5.95;1.80;;;14.80;53.30;;;;;;5094934;27;45518;-68
2023/01/31 00:33:11;;;;;;;9.65;1.63;;;14.80;53.20;;;;;;5103114;27;45561;-67
2023/01/31 00:35:40;;;;;;;10.02;1.98;;;14.80;53.30;;;;;;5103408;27;46605;-68
2023/01/31 00:38:08;;;;;;;3.47;1.38;;;14.80;53.30;;;;;;5103860;27;45347;-68
2023/01/31 00:40:35;;;;;;;8.07;2.10;;;14.80;53.30;;;;;;5096204;27;45455;-68
2023/01/31 00:43:02;;;;;;;4.05;1.73;;;14.80;53.30;;;;;;5104104;27;45606;-68
2023/01/31 00:45:28;;;;;;;7.30;2.00;;;14.80;53.30;;;;;;5104019;27;45511;-68
2023/01/31 00:47:55;;;;;;;6.80;1.67;;;14.80;53.00;;;;;;5103844;27;45367;-67
2023/01/31 00:50:22;;;;;;;5.18;1.52;;;14.90;53.00;;;;;;5105569;27;45413;-68
2023/01/31 00:52:49;;;;;;;6.80;2.00;;;14.80;53.00;;;;;;5105398;27;45529;-67
2023/01/31 00:55:17;;;;;;;6.22;1.70;;;14.90;53.10;;;;;;5105373;27;45483;-67
2023/01/31 00:57:44;;;;;;;7.05;1.58;;;14.90;54.30;;;;;;5098841;27;45332;-67
2023/01/31 01:00:12;;;;;;;4.40;1.45;;;14.90;53.10;;;;;;5098647;27;45579;-68
2023/01/31 01:02:38;;;;;;;9.65;2.55;;;14.90;53.10;;;;;;5095406;27;45518;-68
2023/01/31 01:05:06;;;;;;;7.13;1.60;;;14.90;53.20;;;;;;5104136;27;45492;-67
2023/01/31 01:07:33;;;;;;;10.50;1.88;;;14.90;53.10;;;;;;5102679;27;45388;-67
2023/01/31 01:09:59;;;;;;;7.88;2.33;;;14.90;53.10;;;;;;5103806;27;45621;-67
2023/01/31 01:12:28;;;;;;;6.53;1.73;;;14.80;53.20;;;;;;5103323;27;45399;-67
2023/01/31 01:14:54;;;;;;;3.55;1.50;;;14.80;53.20;;;;;;5104643;27;45319;-68
2023/01/31 01:17:21;;;;;;;6.68;1.77;;;14.80;53.20;;;;;;5104361;27;45791;-68
2023/01/31 01:19:48;;;;;;;6.45;1.95;;;14.80;53.20;;;;;;5105480;27;45245;-67
2023/01/31 01:22:15;;;;;;;5.18;1.75;;;14.80;53.30;;;;;;5105434;27;45314;-68
2023/01/31 01:24:42;;;;;;;7.70;2.17;;;14.80;53.30;;;;;;5104812;27;46621;-67
2023/01/31 01:27:09;;;;;;;4.95;1.48;;;14.80;53.50;;;;;;5104574;27;45284;-68
2023/01/31 01:29:38;;;;;;;7.00;1.40;;;14.80;53.30;;;;;;5104786;27;45362;-68
2023/01/31 01:32:06;;;;;;;4.93;2.03;;;14.80;53.30;;;;;;5098892;27;45592;-68
2023/01/31 01:34:33;;;;;;;6.60;1.60;;;14.80;53.30;;;;;;5104840;27;46143;-68
2023/01/31 01:37:10;;;;;;;5.10;1.75;;;14.80;53.00;;;;;;5103978;27;45417;-68
2023/01/31 01:39:37;;;;;;;4.70;1.55;;;14.80;52.90;;;;;;5104791;27;45413;-67
2023/01/31 01:42:05;;;;;;;6.57;1.88;;;14.90;53.00;;;;;;5105101;27;45419;-68
2023/01/31 01:44:48;;;;;;;9.55;2.10;;;14.90;52.90;;;;;;5104074;27;46751;-67
2023/01/31 01:47:21;;;;;;;6.15;1.58;;;14.90;53.00;;;;;;5098504;27;45318;-67
2023/01/31 01:49:52;;;;;;;7.43;1.60;;;14.90;53.10;;;;;;5102576;27;45333;-67
2023/01/31 01:52:19;;;;;;;6.20;1.83;;;14.90;52.90;;;;;;5104669;27;45380;-67
2023/01/31 01:54:52;;;;;;;7.40;1.80;;;14.90;53.00;;;;;;5104419;27;46343;-67
2023/01/31 01:57:24;;;;;;;4.82;1.70;;;14.80;52.90;;;;;;5103623;27;45411;-67
2023/01/31 01:59:57;;;;;;;4.65;1.35;;;14.90;53.10;;;;;;5104917;27;45316;-68
2023/01/31 02:02:24;;;;;;;5.35;1.67;;;14.80;53.10;;;;;;5104445;27;45510;-68
2023/01/31 02:04:52;;;;;;;4.85;1.65;;;14.90;53.10;;;;;;5103829;27;46960;-67
2023/01/31 02:07:19;;;;;;;3.22;1.40;;;14.80;53.00;;;;;;5103733;27;45371;-67
2023/01/31 02:09:51;;;;;;;5.85;1.50;;;14.80;53.10;;;;;;5104400;27;45301;-67
2023/01/31 02:12:18;;;;;;;5.78;1.70;;;14.80;53.10;;;;;;5100471;27;45475;-67
2023/01/31 02:14:46;;;;;;;4.35;1.38;;;14.80;54.40;;;;;;5103927;27;45484;-68
2023/01/31 02:17:18;;;;;;;6.40;2.00;;;14.80;53.50;;;;;;5103624;27;45453;-68
2023/01/31 02:19:57;;;;;;;4.10;1.23;;;14.80;53.40;;;;;;5104495;27;45227;-68
2023/01/31 02:22:27;;;;;;;5.88;1.55;;;14.80;53.30;;;;;;5097104;27;45380;-67
2023/01/31 02:25:27;;;;;;;6.68;1.67;;;14.80;53.20;;;;;;5104113;27;45460;-67
2023/01/31 02:28:19;;;;;;;6.95;1.65;;;14.80;52.90;;;;;;5103664;27;45262;-67
2023/01/31 02:31:35;;;;;;;4.68;1.45;;;14.90;53.00;;;;;;5095963;27;45355;-67
2023/01/31 02:34:08;;;;;;;3.72;1.40;;;14.90;52.90;;;;;;5021569;28;45429;-67
2023/01/31 02:36:45;;;;;;;3.78;1.40;;;14.90;52.80;;;;;;5020122;28;46302;-68
2023/01/31 02:39:22;;;;;;;5.68;1.63;;;14.90;52.80;;;;;;5075018;27;45415;-67
2023/01/31 02:41:56;;;;;;;6.40;1.55;;;14.90;52.80;;;;;;5103817;27;45312;-67
2023/01/31 02:47:26;;;;;;;6.90;1.67;;;14.90;52.90;;;;;;5103255;27;45483;-67
2023/01/31 02:50:00;;;;;;;5.55;1.27;;;14.90;52.90;;;;;;5103753;27;45357;-68
2023/01/31 02:52:35;;;;;;;4.25;1.48;;;14.90;53.00;;;;;;5103750;27;45274;-67
2023/01/31 02:57:57;;;;;;;6.00;1.70;;;14.80;53.10;;;;;;5102383;27;45346;-68
2023/01/31 03:00:25;;;;;;;6.75;1.73;;;14.80;53.20;;;;;;5103445;27;45265;-68
2023/01/31 03:02:52;;;;;;;9.10;1.85;;;14.80;53.30;;;;;;5103322;27;46611;-67
2023/01/31 03:05:21;;;;;;;3.65;1.20;;;14.80;53.40;;;;;;5103766;27;45436;-68
2023/01/31 03:07:51;;;;;;;4.03;1.50;;;14.80;53.50;;;;;;5103030;27;47442;-68
2023/01/31 03:10:34;;;;;;;4.88;1.80;;;14.80;53.60;;;;;;5103236;27;45353;-68
2023/01/31 03:13:28;;;;;;;6.93;2.00;;;14.80;53.60;;;;;;5087806;27;45372;-67
2023/01/31 03:18:59;;;;;;;7.18;1.70;;;14.80;53.20;;;;;;5103608;27;45327;-67
2023/01/31 03:21:33;;;;;;;5.57;1.40;;;14.80;52.50;;;;;;5103434;27;45304;-68
2023/01/31 03:24:02;;;;;;;7.93;2.00;;;14.80;52.20;;;;;;5106642;27;45308;-67
2023/01/31 03:26:29;;;;;;;6.03;1.67;;;14.80;52.00;;;;;;5106972;27;45395;-67
2023/01/31 03:28:57;;;;;;;6.25;1.95;;;14.80;51.60;;;;;;5104657;27;46239;-68
2023/01/31 03:31:29;;;;;;;6.82;1.75;;;14.70;51.30;;;;;;5103814;27;45399;-68
2023/01/31 03:34:01;;;;;;;7.10;1.88;;;14.70;50.90;;;;;;5106882;27;45352;-68
2023/01/31 03:36:38;;;;;;;5.15;1.88;;;14.80;51.20;;;;;;5106535;27;45245;-67
2023/01/31 03:39:12;;;;;;;7.38;1.88;;;14.80;51.30;;;;;;5106469;27;46381;-68
2023/01/31 03:41:49;;;;;;;6.47;1.75;;;14.80;51.40;;;;;;5106264;27;45230;-67
2023/01/31 03:44:21;;;;;;;6.82;1.48;;;14.80;51.40;;;;;;5107708;27;45256;-67
2023/01/31 03:46:53;;;;;;;6.22;1.80;;;14.80;51.50;;;;;;5105734;27;45332;-68
2023/01/31 03:49:24;;;;;;;5.65;1.63;;;14.80;51.60;;;;;;5104940;27;46507;-67
2023/01/31 03:51:58;;;;;;;6.15;1.67;;;14.80;51.70;;;;;;5106398;27;45495;-68
2023/01/31 03:54:29;;;;;;;6.13;1.60;;;14.80;51.80;;;;;;5102746;27;45372;-68
2023/01/31 03:57:00;;;;;;;7.20;1.92;;;14.80;51.90;;;;;;5101438;27;45418;-68
2023/01/31 03:59:30;;;;;;;3.85;1.77;;;14.80;52.00;;;;;;5106141;27;46601;-67
2023/01/31 04:02:01;;;;;;;7.45;1.98;;;14.80;52.10;;;;;;5106449;27;45342;-67
2023/01/31 04:04:32;;;;;;;7.63;1.90;;;14.80;52.10;;;;;;5105843;27;45275;-67
2023/01/31 04:07:01;;;;;;;6.88;1.75;;;14.80;52.00;;;;;;5105858;27;45526;-67
2023/01/31 04:09:27;;;;;;;6.18;1.85;;;14.80;51.90;;;;;;5106276;27;46620;-67
2023/01/31 04:11:54;;;;;;;8.48;1.83;;;14.90;52.00;;;;;;5105951;27;45320;-67
2023/01/31 04:14:21;;;;;;;6.13;1.88;;;14.90;52.00;;;;;;5106197;27;45289;-68
2023/01/31 04:16:48;;;;;;;5.95;1.92;;;14.90;51.80;;;;;;5105825;27;45602;-67
2023/01/31 04:19:14;;;;;;;8.27;2.58;;;14.90;51.30;;;;;;5106420;27;47384;-67
2023/01/31 04:21:41;;;;;;;6.32;2.30;;;14.80;51.10;;;;;;5099356;27;45430;-67
2023/01/31 04:24:09;;;;;;;5.40;1.92;;;14.80;50.70;;;;;;5106332;27;45270;-68
2023/01/31 04:26:37;;;;;;;10.15;2.67;;;14.80;50.70;;;;;;5105432;27;45535;-67
2023/01/31 04:29:04;;;;;;;8.50;2.13;;;14.80;50.80;;;;;;5105830;27;45289;-68
2023/01/31 04:31:31;;;;;;;8.13;2.10;;;14.80;50.60;;;;;;5105734;27;45251;-67
2023/01/31 04:33:58;;;;;;;5.47;2.13;;;14.70;50.50;;;;;;5105542;27;45304;-68
2023/01/31 04:36:25;;;;;;;7.45;1.80;;;14.70;50.40;;;;;;5089829;27;45328;-68
2023/01/31 04:38:52;;;;;;;6.18;2.15;;;14.70;50.40;;;;;;5098292;27;45311;-68
2023/01/31 04:41:20;;;;;;;8.15;2.15;;;14.70;50.40;;;;;;5102710;27;45314;-68
2023/01/31 04:43:47;;;;;;;11.38;2.85;;;14.70;50.40;;;;;;5091356;27;45537;-68
2023/01/31 04:46:14;;;;;;;8.35;2.47;;;14.70;50.30;;;;;;5102147;27;45379;-68
2023/01/31 04:48:41;;;;;;;10.15;2.55;;;14.70;50.30;;;;;;5101772;27;47495;-68
2023/01/31 04:51:08;;;;;;;8.38;2.58;;;14.70;50.20;;;;;;5105405;27;45368;-68
2023/01/31 04:53:35;;;;;;;7.45;2.38;;;14.70;50.20;;;;;;5104356;27;45364;-68
2023/01/31 04:56:02;;;;;;;7.93;2.47;;;14.70;50.20;;;;;;5098387;27;45277;-68
2023/01/31 04:58:30;;;;;;;7.30;2.47;;;14.70;50.00;;;;;;5103778;27;45434;-68
2023/01/31 05:00:57;;;;;;;9.45;2.10;;;14.70;49.80;;;;;;5101082;27;45453;-68
2023/01/31 05:03:24;;;;;;;7.57;2.35;;;14.70;49.70;;;;;;5104305;27;45446;-68
2023/01/31 05:05:51;;;;;;;9.07;2.67;;;14.70;49.60;;;;;;5104146;27;45442;-68
2023/01/31 05:08:18;;;;;;;8.70;2.78;;;14.70;49.60;;;;;;5097860;27;47526;-68
2023/01/31 05:10:45;;;;;;;7.75;2.65;;;14.80;49.70;;;;;;5101763;27;45350;-68
2023/01/31 05:13:13;;;;;;;7.55;2.90;;;14.80;49.70;;;;;;5095885;27;45265;-68
2023/01/31 05:15:41;;;;;;;11.85;3.20;;;14.80;49.70;;;;;;5096698;27;45539;-68
2023/01/31 05:18:08;;;;;;;9.43;2.33;;;14.70;49.80;;;;;;5104303;27;45366;-67
2023/01/31 05:20:39;;;;;;;6.75;2.38;;;14.70;49.80;;;;;;5097658;27;45368;-68
2023/01/31 05:23:06;;;;;;;7.90;2.38;;;14.70;49.80;;;;;;5099544;27;45476;-68
2023/01/31 05:25:34;;;;;;;11.45;3.22;;;14.70;49.90;;;;;;5099933;27;45420;-68
2023/01/31 05:28:01;;;;;;;11.13;2.58;;;14.70;50.00;;;;;;5098282;27;46308;-68
2023/01/31 05:30:28;;;;;;;9.88;2.90;;;14.70;50.00;;;;;;5101349;27;45345;-68
2023/01/31 05:32:56;;;;;;;10.63;3.17;;;14.70;50.10;;;;;;5104574;27;45319;-68
2023/01/31 05:35:23;;;;;;;10.77;2.80;;;14.60;50.00;;;;;;5105782;27;45285;-67
2023/01/31 05:37:50;;;;;;;11.05;3.40;;;14.60;50.00;;;;;;5102927;27;46401;-68
2023/01/31 05:40:17;;;;;;;14.25;2.85;;;14.60;50.00;;;;;;5103736;27;46334;-68
2023/01/31 05:42:44;;;;;;;10.15;3.20;;;14.60;50.00;;;;;;5103849;27;45472;-68
2023/01/31 05:45:14;;;;;;;9.05;3.20;;;14.60;50.00;;;;;;5098106;27;45526;-67
2023/01/31 05:47:41;;;;;;;10.48;3.03;;;14.70;50.00;;;;;;5094480;27;45523;-68
2023/01/31 05:50:11;;;;;;;8.02;3.17;;;14.70;49.80;;;;;;5103872;27;45276;-68
2023/01/31 05:52:37;;;;;;;10.25;2.85;;;14.70;49.60;;;;;;5103341;27;45411;-68
2023/01/31 05:55:05;;;;;;;12.73;3.60;;;14.70;49.60;;;;;;5104250;27;45343;-67
2023/01/31 05:57:32;;;;;;;10.38;2.80;;;14.80;49.60;;;;;;5103199;27;45474;-69
2023/01/31 05:59:59;;;;;;;9.60;3.20;;;14.80;49.50;;;;;;5102494;27;45792;-67
2023/01/31 06:02:26;;;;;;;12.02;3.45;;;14.70;49.40;;;;;;5089676;27;45276;-68
2023/01/31 06:04:53;;;;;;;7.63;2.80;;;14.70;50.60;;;;;;5094227;27;45432;-68
2023/01/31 06:07:22;;;;;;;8.15;3.10;;;14.70;49.50;;;;;;5103550;27;46399;-67
2023/01/31 06:09:49;;;;;;;8.98;3.05;;;14.70;49.60;;;;;;5102057;27;45412;-67
2023/01/31 06:12:15;;;;;;;9.32;2.70;;;14.70;49.60;;;;;;5109805;27;45361;-67
2023/01/31 06:14:43;;;;;;;10.52;3.42;;;14.70;49.60;;;;;;5106549;27;45365;-68
2023/01/31 06:17:10;;;;;;;8.60;2.97;;;14.70;49.60;;;;;;5105209;27;48594;-67
2023/01/31 06:19:37;;;;;;;9.43;2.88;;;14.70;49.60;;;;;;5100968;27;46032;-68
2023/01/31 06:22:04;;;;;;;7.57;2.63;;;14.70;49.60;;;;;;5102294;27;45470;-67
2023/01/31 06:24:33;;;;;;;11.07;2.88;;;14.70;49.60;;;;;;5118384;27;45289;-68
2023/01/31 06:26:59;;;;;;;10.10;3.17;;;14.70;49.50;;;;;;5098992;27;46549;-67
2023/01/31 06:29:26;;;;;;;9.23;3.00;;;14.70;49.50;;;;;;5104119;27;45300;-67
2023/01/31 06:31:53;;;;;;;9.35;2.65;;;14.70;49.20;;;;;;5104257;27;45331;-68
2023/01/31 06:34:20;;;;;;;9.75;2.95;;;14.70;49.30;;;;;;5107056;27;45652;-68
2023/01/31 06:36:47;;;;;;;7.57;2.85;;;14.70;49.10;;;;;;5092074;27;46609;-67
2023/01/31 06:39:14;;;;;;;7.97;2.83;;;14.70;49.00;;;;;;5103271;27;45252;-67
2023/01/31 06:41:42;;;;;;;11.98;2.97;;;14.70;49.00;;;;;;5102470;27;45411;-67
2023/01/31 06:44:09;;;;;;;9.88;2.90;;;14.70;49.30;;;;;;5105103;27;45384;-67
2023/01/31 06:46:36;;;;;;;9.38;2.50;;;14.70;49.40;;;;;;5101230;27;46587;-67
2023/01/31 06:49:03;;;;;;;11.63;2.40;;;14.70;49.50;;;;;;5106713;27;45360;-67
2023/01/31 06:51:30;;;;;;;7.78;2.75;;;14.70;49.60;;;;;;5097983;27;45380;-67
2023/01/31 06:53:57;;;;;;;8.02;2.67;;;14.70;49.60;;;;;;5101587;27;45448;-68
2023/01/31 06:56:24;;;;;;;6.90;2.53;;;14.70;49.70;;;;;;5103524;27;46492;-68
2023/01/31 06:58:52;;;;;;;6.85;2.35;;;14.70;49.70;;;;;;5093619;27;45341;-68
2023/01/31 07:01:21;;;;;;;9.23;2.33;;;14.60;49.70;;;;;;5090174;27;45491;-68
2023/01/31 07:03:48;;;;;;;8.38;2.53;;;14.60;49.50;;;;;;5102057;27;45312;-67
2023/01/31 07:06:17;;;;;;;6.00;2.28;;;14.60;49.60;;;;;;5097025;27;46571;-67
2023/01/31 07:08:43;;;;;;;11.40;1.95;;;14.70;50.60;;;;;;5105575;27;45274;-68
2023/01/31 07:11:10;;;;;;;7.50;1.67;;;14.60;50.40;;;;;;5092949;27;45471;-67
2023/01/31 07:13:37;;;;;;;8.77;2.40;;;14.60;50.30;;;;;;5102383;27;45550;-68
2023/01/31 07:16:06;;;;;;;8.18;2.28;;;14.60;50.20;;;;;;5107198;27;47669;-67
2023/01/31 07:18:32;;;;;;;6.65;2.38;;;14.60;50.30;;;;;;5104377;27;45430;-67
2023/01/31 07:20:59;;;;;;;5.15;2.05;;;14.60;50.20;;;;;;5105494;27;45362;-67
2023/01/31 07:23:26;;;;;;;7.22;2.10;;;14.50;49.90;;;;;;5089247;27;45446;-68
2023/01/31 07:25:53;;;;;;;7.03;2.22;;;14.50;49.70;;;;;;5094411;27;47218;-67
2023/01/31 07:28:19;;;;;;;8.07;2.13;;;14.60;49.60;;;;;;5101748;27;46569;-67
2023/01/31 07:30:47;;;;;;;7.85;2.03;;;14.60;49.30;;;;;;5092012;27;45434;-68
2023/01/31 07:33:15;;;;;;;8.93;2.10;;;14.60;49.10;;;;;;5101255;27;45259;-68
2023/01/31 07:35:42;;;;;;;4.70;1.92;;;14.60;48.90;;;;;;5100825;27;47569;-67
2023/01/31 07:38:09;;;;;;;9.05;2.20;;;14.60;48.90;;;;;;5102721;27;45459;-68
2023/01/31 07:40:36;;;;;;;7.28;2.30;;;14.60;48.90;;;;;;5105580;27;45759;-68
2023/01/31 07:43:02;;;;;;;8.45;2.15;;;14.60;48.90;;;;;;5108183;27;45486;-68
2023/01/31 07:45:29;;;;;;;9.55;2.28;;;14.60;48.90;;;;;;5105807;27;46552;-68
2023/01/31 07:47:58;;;;;;;8.10;2.40;;;14.60;48.90;;;;;;5105667;27;45380;-68
2023/01/31 07:50:27;;;;;;;7.45;1.98;;;14.60;48.90;;;;;;5109334;27;45562;-68
2023/01/31 07:52:53;;;;;;;8.57;2.10;;;14.60;48.90;;;;;;5106324;27;45492;-67
2023/01/31 07:55:20;;;;;;;5.10;2.10;;;14.60;48.90;;;;;;5108585;27;46091;-68
2023/01/31 07:57:47;;;;;;;5.18;1.95;;;14.60;48.90;;;;;;5104142;27;46017;-67
2023/01/31 08:05:41;;;;;;;4.10;1.60;;;14.70;50.80;;;;;;5106303;27;45550;-67
2023/01/31 08:08:10;;;;;;;8.07;1.90;;;14.70;49.30;;;;;;5109872;27;45833;-67
2023/01/31 08:10:37;;;;;;;6.45;1.40;;;14.70;49.00;;;;;;5109621;27;45513;-67
2023/01/31 08:13:04;;;;;;;6.10;1.60;;;14.70;49.00;;;;;;5109766;27;45467;-67
2023/01/31 08:15:31;;;;;;;6.65;1.67;;;14.70;49.00;;;;;;5104920;27;45429;-67
2023/01/31 08:17:58;;;;;;;7.88;2.00;;;14.70;49.00;;;;;;5100132;27;45324;-67
2023/01/31 08:20:25;;;;;;;5.32;1.88;;;14.70;49.00;;;;;;5101673;27;45326;-68
2023/01/31 08:22:53;;;;;;;8.50;1.95;;;14.70;49.00;;;;;;5102722;27;45482;-67
2023/01/31 08:25:20;;;;;;;4.40;1.58;;;14.70;49.00;;;;;;5108716;27;47053;-68
2023/01/31 08:27:47;;;;;;;6.93;1.77;;;14.70;49.00;;;;;;5097917;27;45370;-67
2023/01/31 08:30:14;;;;;;;7.07;1.33;;;14.70;49.00;;;;;;5104674;27;45441;-67
2023/01/31 08:32:41;;;;;;;8.80;1.70;;;14.80;49.10;;;;;;5102711;27;45328;-67
2023/01/31 08:35:08;;;;;;;5.90;1.77;;;14.80;49.10;;;;;;5099170;27;45271;-67
2023/01/31 08:37:35;;;;;;;8.77;1.65;;;14.70;49.00;;;;;;5102787;27;45327;-67
2023/01/31 08:40:03;;;;;;;5.03;1.58;;;14.70;49.00;;;;;;5114188;27;45461;-67
2023/01/31 08:42:30;;;;;;;4.28;1.67;;;14.70;49.00;;;;;;5107636;27;45598;-68
2023/01/31 08:44:57;;;;;;;4.45;1.52;;;14.70;49.00;;;;;;5112267;27;46267;-68
2023/01/31 08:47:24;;;;;;;5.22;1.65;;;14.70;49.00;;;;;;5109917;27;45355;-67
2023/01/31 08:49:50;;;;;;;5.82;1.77;;;14.70;49.00;;;;;;5110502;27;45399;-68
2023/01/31 08:52:17;;;;;;;6.63;1.60;;;14.70;49.00;;;;;;5098126;27;45440;-67
2023/01/31 08:54:44;;;;;;;4.07;1.45;;;14.70;49.00;;;;;;5104229;27;45491;-67
2023/01/31 08:57:12;;;;;;;9.13;1.83;;;14.70;49.00;;;;;;5101320;27;45350;-67
2023/01/31 08:59:39;;;;;;;10.45;1.45;;;14.80;49.10;;;;;;5104084;27;45365;-68
2023/01/31 09:02:06;;;;;;;5.68;1.67;;;14.80;49.10;;;;;;5100886;27;45478;-67
2023/01/31 09:04:33;;;;;;;7.80;1.75;;;14.80;49.10;;;;;;5104013;27;47663;-67
2023/01/31 09:07:00;;;;;;;6.10;1.58;;;14.80;49.10;;;;;;5103621;27;45326;-67
2023/01/31 09:09:26;;;;;;;7.70;1.40;;;14.80;49.10;;;;;;5097690;27;45318;-67
2023/01/31 09:11:53;;;;;;;6.15;1.25;;;14.80;49.50;;;;;;5102541;27;45232;-67
2023/01/31 09:14:21;;;;;;;5.47;1.63;;;14.80;49.60;;;;;;5104327;27;46432;-67
2023/01/31 09:16:48;;;;;;;6.40;1.83;;;14.80;49.70;;;;;;5096282;27;45733;-67
2023/01/31 09:19:15;;;;;;;5.70;1.40;;;14.90;50.00;;;;;;5104695;27;45325;-68
2023/01/31 09:21:41;;;;;;;3.03;1.17;;;14.90;50.00;;;;;;5102853;27;45210;-67
2023/01/31 09:24:10;;;;;;;7.03;1.92;;;14.90;50.20;;;;;;5104507;27;45304;-67
2023/01/31 09:26:37;;;;;;;3.40;1.40;;;14.90;50.30;;;;;;5101748;27;45423;-68
2023/01/31 09:29:04;;;;;;;6.18;1.75;;;14.90;50.40;;;;;;5102464;27;45378;-67
2023/01/31 09:31:32;;;;;;;6.38;1.80;;;14.80;50.50;;;;;;5094493;27;45506;-67
2023/01/31 09:33:59;;;;;;;6.53;2.03;;;14.90;50.70;;;;;;5104030;27;46577;-67
2023/01/31 09:36:26;;;;;;;5.50;1.83;;;14.80;50.70;;;;;;5103602;27;45546;-67
2023/01/31 09:38:57;;;;;;;5.15;1.70;;;14.80;50.90;;;;;;5102697;27;45433;-67
2023/01/31 09:41:29;;;;;;;6.20;1.40;;;14.80;50.90;;;;;;5104296;27;45322;-67
2023/01/31 09:43:59;;;;;;;4.50;1.33;;;14.80;51.10;;;;;;5096936;27;45309;-68
2023/01/31 09:46:30;;;;;;;3.67;1.40;;;14.80;51.10;;;;;;5103764;27;45372;-68
2023/01/31 09:49:04;;;;;;;5.18;1.30;;;14.80;51.30;;;;;;5099601;27;45380;-68
2023/01/31 09:51:33;;;;;;;4.30;1.30;;;14.90;51.40;;;;;;5103536;27;45524;-68
2023/01/31 09:54:01;;;;;;;5.07;1.40;;;14.90;51.50;;;;;;5101568;27;46459;-67
2023/01/31 09:56:34;;;;;;;7.32;1.40;;;14.80;51.40;;;;;;5103075;27;45313;-67
2023/01/31 09:59:11;;;;;;;4.53;1.20;;;14.90;51.50;;;;;;5102153;27;45496;-68
2023/01/31 10:01:45;;;;;;;6.03;1.60;;;14.90;51.60;;;;;;5096819;27;45317;-67
2023/01/31 10:04:39;;;;;;;5.68;1.70;;;14.90;51.60;;;;;;5095291;27;45593;-68
2023/01/31 10:07:11;;;;;;;7.97;1.55;;;14.90;51.60;;;;;;5096762;27;45434;-68
2023/01/31 10:09:44;;;;;;;4.95;1.33;;;15.00;51.60;;;;;;5103036;27;45238;-68
2023/01/31 10:12:15;;;;;;;3.05;1.45;;;15.00;51.70;;;;;;5102725;27;45348;-67
2023/01/31 10:14:49;;;;;;;2.63;1.20;;;15.00;51.70;;;;;;5100357;27;45461;-68
2023/01/31 10:17:21;;;;;;;3.65;1.40;;;15.00;51.60;;;;;;5096528;27;45401;-68
2023/01/31 10:19:54;;;;;;;5.88;1.38;;;15.10;51.80;;;;;;5095617;27;45355;-68
2023/01/31 10:22:28;;;;;;;3.00;1.40;;;15.10;51.80;;;;;;5102992;27;45333;-68
2023/01/31 10:24:59;;;;;;;5.07;1.45;;;15.00;51.80;;;;;;5103046;27;46298;-67
2023/01/31 10:27:43;;;;;;;6.57;1.40;;;15.10;51.80;;;;;;5102161;27;45419;-68
2023/01/31 10:30:17;;;;;;;5.28;1.55;;;15.10;51.90;;;;;;5102254;27;45395;-67
2023/01/31 10:32:50;;;;;;;6.72;1.45;;;15.10;51.90;;;;;;5099832;27;45257;-67
2023/01/31 10:35:24;;;;;;;6.40;1.80;;;15.10;52.00;;;;;;5095375;27;46363;-67
2023/01/31 10:37:55;;;;;;;5.00;1.25;;;15.10;52.20;;;;;;5088240;27;45399;-67
2023/01/31 10:40:29;;;;;;;5.82;1.65;;;15.10;52.40;;;;;;5099516;27;45481;-66
2023/01/31 10:43:02;;;;;;;5.53;1.98;;;15.10;52.40;;;;;;5102843;27;45350;-68
2023/01/31 10:45:32;;;;;;;5.75;1.42;;;15.20;52.70;;;;;;5092597;27;45541;-68
2023/01/31 10:48:13;;;;;;;7.10;1.20;;;15.20;52.60;;;;;;5100764;27;45619;-68
2023/01/31 10:50:52;;;;;;;7.70;1.35;;;15.10;52.60;;;;;;5102030;27;45276;-68
2023/01/31 10:53:45;;;;;;;4.07;1.38;;;15.20;52.60;;;;;;5098364;27;45274;-68
2023/01/31 10:56:20;;;;;;;4.43;1.70;;;15.10;52.50;;;;;;5096668;27;45358;-68
2023/01/31 10:58:47;;;;;;;4.35;1.55;;;15.10;52.50;;;;;;5090246;27;45382;-68
2023/01/31 11:01:14;;;;;;;4.20;1.20;;;15.10;52.50;;;;;;5102722;27;45304;-68
2023/01/31 11:03:45;;;;;;;6.45;1.63;;;15.10;52.70;;;;;;5102094;27;45349;-68
2023/01/31 11:06:14;;;;;;;4.78;1.35;;;15.10;52.70;;;;;;5100916;27;47960;-67
2023/01/31 11:08:44;;;;;;;4.22;1.30;;;15.10;52.80;;;;;;5096202;27;45594;-67
2023/01/31 11:11:13;;;;;;;4.10;1.38;;;15.10;52.90;;;;;;5102247;27;45418;-67
2023/01/31 11:13:40;;;;;;;3.65;1.15;;;15.10;53.10;;;;;;5098261;27;45528;-68
2023/01/31 11:16:11;;;;;;;5.60;1.27;;;15.10;53.10;;;;;;5096016;27;47504;-68
2023/01/31 11:18:44;;;;;;;7.75;1.95;;;15.10;53.20;;;;;;5096059;27;45272;-68
2023/01/31 11:21:22;;;;;;;4.32;1.13;;;15.10;53.10;;;;;;5103370;27;45378;-69
2023/01/31 11:23:50;;;;;;;3.35;1.45;;;15.10;53.20;;;;;;5088758;27;45329;-68
2023/01/31 11:26:27;;;;;;;4.22;1.67;;;15.10;53.30;;;;;;5091708;27;46617;-68
2023/01/31 11:28:54;;;;;;;5.25;1.45;;;15.10;53.30;;;;;;5100788;27;45466;-68
2023/01/31 11:31:29;;;;;;;5.03;1.60;;;15.10;53.10;;;;;;5101376;27;45304;-68
2023/01/31 11:33:58;;;;;;;4.28;1.23;;;15.10;53.20;;;;;;5101652;27;45347;-68
2023/01/31 11:36:32;;;;;;;3.60;1.45;;;15.10;53.20;;;;;;5092098;27;45490;-68
2023/01/31 11:38:59;;;;;;;3.95;1.50;;;15.20;53.30;;;;;;5097872;27;45484;-68
2023/01/31 11:41:29;;;;;;;3.63;1.20;;;15.20;53.40;;;;;;5090354;27;45344;-68
2023/01/31 11:44:14;;;;;;;4.15;1.17;;;15.10;53.40;;;;;;5091358;27;45573;-68
2023/01/31 11:46:48;;;;;;;3.63;1.25;;;15.10;53.50;;;;;;5100862;27;46260;-68
2023/01/31 11:49:28;;;;;;;5.90;1.25;;;15.10;53.60;;;;;;5103237;27;45438;-68
2023/01/31 11:51:58;;;;;;;6.20;1.63;;;15.10;53.60;;;;;;5109944;27;45514;-69
2023/01/31 11:54:28;;;;;;;2.50;1.15;;;15.10;53.60;;;;;;5112247;27;45641;-68
2023/01/31 11:56:55;;;;;;;3.88;1.00;;;15.10;53.60;;;;;;5108063;27;45615;-68
2023/01/31 11:59:26;;;;;;;2.90;1.15;;;15.10;53.50;;;;;;5104503;27;45410;-68
2023/01/31 12:01:56;;;;;;;4.78;1.80;;;15.10;53.70;;;;;;5109320;27;45578;-68
2023/01/31 12:04:26;;;;;;;4.13;1.30;;;15.10;53.80;;;;;;5108525;27;45611;-67
2023/01/31 12:07:01;;;;;;;3.65;1.10;;;15.10;53.70;;;;;;5112622;27;48027;-67
2023/01/31 12:09:39;;;;;;;2.90;1.15;;;15.10;53.80;;;;;;5111620;27;45657;-68
2023/01/31 12:12:23;;;;;;;5.82;1.77;;;15.20;53.90;;;;;;5106660;27;45487;-68
2023/01/31 12:14:49;;;;;;;5.03;1.15;;;15.20;54.00;;;;;;5107331;27;45330;-68
2023/01/31 12:17:19;;;;;;;5.03;1.50;;;15.20;54.10;;;;;;5106723;27;45506;-68
2023/01/31 12:19:56;;;;;;;4.57;1.58;;;15.20;54.10;;;;;;5110492;27;45352;-68
2023/01/31 12:22:30;;;;;;;1.92;0.98;;;15.20;54.00;;;;;;5109612;27;45552;-68
2023/01/31 12:25:07;;;;;;;3.15;1.40;;;15.20;54.00;;;;;;5107486;27;45332;-68
2023/01/31 12:27:53;;;;;;;8.45;1.77;;;15.20;54.10;;;;;;5105449;27;46618;-68
2023/01/31 12:30:30;;;;;;;5.15;1.88;;;15.20;54.20;;;;;;5104948;27;45584;-68
2023/01/31 12:33:23;;;;;;;2.97;0.95;;;15.20;54.40;;;;;;5106639;27;45664;-68
2023/01/31 12:36:16;;;;;;;5.22;1.30;;;15.10;54.30;;;;;;5108185;27;45512;-68
2023/01/31 12:38:57;;;;;;;4.35;1.33;;;15.10;54.40;;;;;;5109456;27;46393;-68
2023/01/31 12:41:32;;;;;;;7.78;1.70;;;15.10;54.40;;;;;;5106508;27;45638;-69
2023/01/31 12:44:18;;;;;;;7.18;2.08;;;15.20;57.50;;;;;;5112509;27;45537;-65
2023/01/31 12:47:00;;;;;;;8.20;1.90;;;15.30;57.50;;;;;;5109829;27;45553;-66
2023/01/31 12:49:44;;;;;;;4.22;1.45;;;15.20;58.70;;;;;;5108804;27;47714;-67
2023/01/31 12:52:20;;;;;;;4.28;1.60;;;15.10;58.10;;;;;;5108034;27;46540;-67
2023/01/31 12:55:00;;;;;;;5.15;1.75;;;15.10;58.50;;;;;;5102635;27;45430;-66
2023/01/31 12:57:35;;;;;;;7.63;1.60;;;15.10;59.20;;;;;;5095428;27;45287;-67
2023/01/31 13:00:16;;;;;;;4.55;1.50;;;15.10;60.00;;;;;;5103419;27;45438;-66
2023/01/31 13:02:58;;;;;;;8.50;1.73;;;15.10;60.40;;;;;;5093867;27;45426;-66
2023/01/31 13:05:30;;;;;;;5.45;1.50;;;15.10;60.60;;;;;;5097895;27;45415;-67
2023/01/31 13:08:03;;;;;;;5.68;1.70;;;15.10;61.20;;;;;;5101099;27;45221;-67
2023/01/31 13:10:37;;;;;;;4.70;1.30;;;15.10;61.40;;;;;;5096716;27;46305;-67
2023/01/31 13:13:11;;;;;;;4.07;1.48;;;15.10;61.70;;;;;;5104859;27;45387;-67
2023/01/31 13:15:44;;;;;;;6.43;1.30;;;15.10;62.20;;;;;;5105774;27;45467;-67